createdAt,value
2023-04-23T00:00:59.360Z,0.90
2023-04-23T00:03:29.986Z,0.90
2023-04-23T00:06:00.171Z,0.90
2023-04-23T00:08:30.400Z,1.00
2023-04-23T00:10:59.911Z,0.80
2023-04-23T00:13:29.626Z,1.05
2023-04-23T00:16:03.522Z,0.85
2023-04-23T00:18:34.208Z,0.90
2023-04-23T00:21:03.725Z,0.95
2023-04-23T00:23:33.011Z,0.93
2023-04-23T00:26:03.255Z,0.80
2023-04-23T00:28:35.432Z,0.80
2023-04-23T00:31:07.060Z,0.88
2023-04-23T00:33:39.418Z,1.00
2023-04-23T00:36:08.825Z,1.00
2023-04-23T00:38:38.226Z,0.75
2023-04-23T00:41:08.150Z,1.00
2023-04-23T00:43:38.949Z,1.10
2023-04-23T00:46:08.584Z,0.98
2023-04-23T00:48:38.195Z,1.10
2023-04-23T00:51:08.021Z,0.90
2023-04-23T00:53:37.205Z,0.90
2023-04-23T00:56:06.965Z,1.05
2023-04-23T00:58:36.583Z,1.00
2023-04-23T01:01:07.148Z,1.05
2023-04-23T01:03:39.032Z,1.33
2023-04-23T01:06:19.011Z,1.35
2023-04-23T01:08:58.325Z,1.13
2023-04-23T01:11:31.631Z,1.10
2023-04-23T01:14:04.103Z,1.17
2023-04-23T01:16:33.722Z,1.25
2023-04-23T01:19:11.485Z,1.10
2023-04-23T01:21:44.153Z,0.90
2023-04-23T01:24:28.037Z,0.93
2023-04-23T01:26:57.274Z,0.90
2023-04-23T01:29:27.232Z,1.08
2023-04-23T01:31:56.919Z,1.23
2023-04-23T01:34:26.289Z,1.15
2023-04-23T01:36:58.494Z,1.08
2023-04-23T01:39:27.840Z,1.10
2023-04-23T01:42:00.221Z,1.30
2023-04-23T01:44:32.903Z,1.02
2023-04-23T01:47:09.739Z,1.33
2023-04-23T01:49:38.950Z,1.00
2023-04-23T01:52:11.146Z,0.90
2023-04-23T01:54:43.233Z,1.02
2023-04-23T01:57:33.479Z,0.90
2023-04-23T02:00:09.315Z,1.13
2023-04-23T02:02:44.044Z,0.98
2023-04-23T02:05:20.347Z,1.00
2023-04-23T02:07:51.509Z,1.20
2023-04-23T02:10:30.830Z,1.10
2023-04-23T02:13:03.970Z,1.00
2023-04-23T02:15:35.601Z,1.52
2023-04-23T02:18:22.172Z,1.40
2023-04-23T02:21:05.430Z,1.30
2023-04-23T02:23:36.156Z,1.58
2023-04-23T02:26:05.985Z,1.27
2023-04-23T02:28:38.788Z,1.30
2023-04-23T02:32:21.700Z,1.48
2023-04-23T02:34:10.594Z,1.58
2023-04-23T02:36:40.382Z,1.40
2023-04-23T02:39:18.487Z,1.30
2023-04-23T02:41:59.468Z,1.60
2023-04-23T02:44:33.079Z,1.90
2023-04-23T02:47:05.281Z,2.53
2023-04-23T02:49:37.319Z,2.42
2023-04-23T02:52:28.356Z,2.20
2023-04-23T02:55:00.808Z,2.08
2023-04-23T02:57:30.472Z,1.98
2023-04-23T03:00:00.193Z,2.42
2023-04-23T03:02:39.632Z,2.72
2023-04-23T03:05:12.022Z,2.97
2023-04-23T03:07:44.140Z,2.80
2023-04-23T03:10:13.166Z,2.88
2023-04-23T03:12:46.271Z,2.50
2023-04-23T03:15:21.083Z,3.00
2023-04-23T03:17:52.536Z,2.47
2023-04-23T03:20:22.713Z,2.67
2023-04-23T03:22:52.757Z,2.40
2023-04-23T03:25:25.194Z,2.67
2023-04-23T03:27:55.185Z,2.58
2023-04-23T03:30:24.735Z,2.47
2023-04-23T03:32:57.102Z,2.63
2023-04-23T03:35:27.236Z,2.50
2023-04-23T03:37:58.453Z,2.33
2023-04-23T03:43:21.442Z,2.92
2023-04-23T03:46:09.474Z,2.75
2023-04-23T03:48:47.774Z,2.70
2023-04-23T03:51:28.961Z,3.60
2023-04-23T03:53:58.730Z,3.78
2023-04-23T03:56:33.799Z,9.50
2023-04-23T03:59:24.376Z,11.68
2023-04-23T04:02:02.430Z,14.25
2023-04-23T04:04:41.791Z,15.77
2023-04-23T04:07:13.023Z,16.48
2023-04-23T04:09:42.069Z,12.27
2023-04-23T04:12:11.257Z,7.32
2023-04-23T04:14:40.882Z,7.00
2023-04-23T04:17:10.403Z,4.68
2023-04-23T04:19:40.305Z,6.45
2023-04-23T04:22:11.250Z,18.98
2023-04-23T04:24:42.889Z,11.57
2023-04-23T04:27:12.530Z,5.63
2023-04-23T04:29:44.312Z,4.72
2023-04-23T04:32:14.393Z,4.95
2023-04-23T04:34:44.108Z,4.00
2023-04-23T04:37:13.777Z,4.15
2023-04-23T04:39:43.377Z,3.47
2023-04-23T04:42:14.014Z,3.13
2023-04-23T04:44:44.281Z,3.38
2023-04-23T04:47:14.367Z,2.78
2023-04-23T04:49:43.393Z,3.15
2023-04-23T04:52:16.200Z,2.83
2023-04-23T04:54:45.316Z,3.38
2023-04-23T04:57:14.354Z,3.53
2023-04-23T04:59:43.937Z,3.40
2023-04-23T05:02:13.294Z,3.03
2023-04-23T05:04:42.625Z,3.40
2023-04-23T05:07:11.983Z,3.83
2023-04-23T05:09:44.775Z,4.22
2023-04-23T05:12:14.136Z,3.63
2023-04-23T05:14:43.225Z,4.30
2023-04-23T05:17:12.879Z,4.78
2023-04-23T05:19:41.830Z,4.45
2023-04-23T05:22:12.433Z,4.60
2023-04-23T05:24:41.917Z,4.75
2023-04-23T05:27:11.111Z,3.65
2023-04-23T05:29:39.948Z,4.60
2023-04-23T05:32:11.857Z,4.28
2023-04-23T05:34:41.488Z,4.40
2023-04-23T05:37:10.600Z,5.43
2023-04-23T05:39:40.095Z,5.47
2023-04-23T05:42:09.077Z,5.90
2023-04-23T05:44:38.023Z,6.15
2023-04-23T05:47:07.057Z,5.50
2023-04-23T05:49:36.345Z,5.15
2023-04-23T05:52:05.471Z,5.10
2023-04-23T05:54:34.498Z,4.93
2023-04-23T05:57:03.820Z,4.85
2023-04-23T05:59:33.447Z,5.80
2023-04-23T06:02:03.159Z,5.10
2023-04-23T06:04:32.692Z,4.72
2023-04-23T06:07:01.950Z,4.40
2023-04-23T06:09:31.003Z,4.97
2023-04-23T06:12:00.453Z,4.35
2023-04-23T06:14:29.536Z,4.07
2023-04-23T06:16:58.514Z,6.63
2023-04-23T06:19:28.786Z,8.05
2023-04-23T06:21:57.970Z,10.77
2023-04-23T06:24:29.148Z,11.38
2023-04-23T06:26:58.659Z,8.23
2023-04-23T06:29:29.804Z,7.00
2023-04-23T06:32:05.914Z,5.50
2023-04-23T06:34:34.921Z,4.55
2023-04-23T06:37:04.166Z,3.97
2023-04-23T06:39:33.216Z,3.78
2023-04-23T06:42:02.517Z,4.10
2023-04-23T06:44:37.217Z,3.72
2023-04-23T06:47:06.895Z,3.83
2023-04-23T06:49:36.101Z,3.20
2023-04-23T06:52:07.881Z,3.40
2023-04-23T06:54:36.991Z,3.75
2023-04-23T06:57:05.958Z,8.80
2023-04-23T06:59:34.970Z,6.97
2023-04-23T07:02:04.610Z,6.63
2023-04-23T07:04:34.492Z,5.22
2023-04-23T07:07:04.005Z,4.97
2023-04-23T07:09:33.003Z,4.53
2023-04-23T07:12:03.084Z,3.00
2023-04-23T07:14:32.136Z,2.72
2023-04-23T07:17:03.475Z,2.95
2023-04-23T07:19:32.960Z,3.22
2023-04-23T07:22:02.185Z,3.22
2023-04-23T07:24:31.216Z,3.92
2023-04-23T07:27:00.300Z,3.83
2023-04-23T07:29:38.454Z,4.25
2023-04-23T07:32:07.576Z,3.90
2023-04-23T07:34:39.580Z,4.47
2023-04-23T07:37:08.931Z,4.20
2023-04-23T07:39:37.967Z,4.43
2023-04-23T07:42:07.353Z,4.28
2023-04-23T07:44:37.082Z,4.75
2023-04-23T07:47:06.331Z,5.18
2023-04-23T07:49:35.314Z,5.90
2023-04-23T07:52:07.676Z,6.70
2023-04-23T07:54:36.695Z,5.57
2023-04-23T07:57:06.158Z,5.25
2023-04-23T07:59:35.505Z,5.35
2023-04-23T08:02:04.410Z,5.55
2023-04-23T08:04:33.715Z,5.00
2023-04-23T08:07:02.833Z,5.35
2023-04-23T08:09:31.991Z,4.10
2023-04-23T08:12:04.524Z,4.75
2023-04-23T08:14:33.718Z,4.38
2023-04-23T08:17:06.659Z,3.03
2023-04-23T08:19:35.719Z,3.72
2023-04-23T08:22:04.824Z,4.32
2023-04-23T08:24:34.197Z,4.07
2023-04-23T08:27:03.922Z,4.00
2023-04-23T08:29:33.187Z,3.90
2023-04-23T08:32:02.270Z,3.50
2023-04-23T08:34:31.432Z,3.20
2023-04-23T08:37:00.600Z,2.85
2023-04-23T08:39:31.414Z,3.05
2023-04-23T08:42:11.970Z,2.80
2023-04-23T08:44:44.125Z,2.33
2023-04-23T08:47:21.092Z,2.45
2023-04-23T08:49:54.885Z,2.60
2023-04-23T08:52:26.080Z,2.40
2023-04-23T08:55:00.852Z,3.05
2023-04-23T08:57:31.959Z,2.33
2023-04-23T09:00:06.961Z,2.55
2023-04-23T09:02:37.715Z,1.80
2023-04-23T09:05:07.446Z,2.60
2023-04-23T09:07:39.793Z,2.60
2023-04-23T09:10:11.173Z,2.47
2023-04-23T09:12:43.135Z,2.67
2023-04-23T09:15:13.579Z,2.33
2023-04-23T09:17:47.577Z,2.45
2023-04-23T09:20:17.402Z,2.10
2023-04-23T09:22:48.811Z,2.72
2023-04-23T09:25:20.616Z,2.42
2023-04-23T09:27:51.623Z,2.20
2023-04-23T09:30:26.204Z,2.25
2023-04-23T09:32:57.338Z,2.17
2023-04-23T09:35:29.325Z,2.22
2023-04-23T09:37:58.705Z,2.45
2023-04-23T09:40:28.571Z,2.55
2023-04-23T09:42:57.678Z,2.17
2023-04-23T09:45:26.967Z,1.70
2023-04-23T09:47:57.976Z,1.80
2023-04-23T09:50:41.204Z,1.75
2023-04-23T09:53:11.716Z,1.75
2023-04-23T09:55:46.210Z,1.40
2023-04-23T09:58:16.911Z,1.50
2023-04-23T10:00:46.178Z,1.40
2023-04-23T10:03:16.649Z,1.55
2023-04-23T10:06:00.373Z,1.40
2023-04-23T10:08:33.685Z,1.45
2023-04-23T10:11:13.791Z,1.80
2023-04-23T10:13:52.471Z,1.42
2023-04-23T10:16:45.995Z,1.70
2023-04-23T10:19:19.018Z,1.95
2023-04-23T10:22:02.399Z,1.33
2023-04-23T10:24:42.359Z,1.60
2023-04-23T10:27:30.721Z,1.67
2023-04-23T10:30:08.656Z,1.30
2023-04-23T10:32:39.639Z,1.40
2023-04-23T10:35:10.488Z,1.95
2023-04-23T10:37:40.315Z,1.48
2023-04-23T10:40:15.245Z,1.30
2023-04-23T10:42:48.563Z,1.58
2023-04-23T10:45:24.698Z,2.03
2023-04-23T10:47:57.548Z,1.38
2023-04-23T10:50:28.796Z,1.30
2023-04-23T10:53:01.252Z,1.58
2023-04-23T10:55:33.300Z,1.58
2023-04-23T10:58:09.523Z,1.60
2023-04-23T11:00:44.969Z,1.80
2023-04-23T11:03:44.841Z,1.48
2023-04-23T11:06:18.889Z,1.30
2023-04-23T11:08:57.759Z,1.55
2023-04-23T11:11:42.677Z,1.40
2023-04-23T11:14:15.148Z,1.67
2023-04-23T11:16:44.621Z,1.73
2023-04-23T11:19:13.758Z,1.55
2023-04-23T11:22:09.135Z,1.30
2023-04-23T11:24:43.557Z,1.67
2023-04-23T11:27:17.534Z,1.80
2023-04-23T11:29:47.812Z,1.67
2023-04-23T11:32:18.460Z,1.27
2023-04-23T11:34:51.321Z,1.30
2023-04-23T11:37:20.603Z,1.35
2023-04-23T11:39:50.058Z,1.95
2023-04-23T11:42:22.787Z,1.60
2023-04-23T11:44:51.764Z,1.55
2023-04-23T11:47:28.933Z,2.40
2023-04-23T11:50:02.168Z,1.40
2023-04-23T11:52:31.479Z,1.23
2023-04-23T11:55:11.281Z,1.60
2023-04-23T11:57:45.059Z,1.33
2023-04-23T12:00:16.915Z,1.98
2023-04-23T12:02:57.055Z,1.52
2023-04-23T12:05:34.412Z,1.67
2023-04-23T12:08:14.107Z,1.38
2023-04-23T12:10:56.402Z,1.40
2023-04-23T12:13:32.167Z,1.48
2023-04-23T12:16:05.766Z,1.80
2023-04-23T12:18:46.445Z,1.88
2023-04-23T12:21:16.286Z,1.75
2023-04-23T12:23:45.699Z,2.25
2023-04-23T12:26:17.112Z,1.77
2023-04-23T12:28:56.325Z,1.70
2023-04-23T12:31:30.623Z,2.30
2023-04-23T12:34:10.120Z,2.20
2023-04-23T12:36:43.628Z,2.17
2023-04-23T12:39:30.526Z,1.98
2023-04-23T12:42:05.646Z,1.80
2023-04-23T12:44:36.970Z,2.15
2023-04-23T12:47:10.155Z,1.80
2023-04-23T12:49:42.824Z,1.40
2023-04-23T12:52:15.225Z,1.33
2023-04-23T12:54:45.774Z,1.05
2023-04-23T12:57:15.211Z,0.90
2023-04-23T12:59:44.384Z,0.70
2023-04-23T13:02:13.561Z,0.55
2023-04-23T13:04:43.218Z,0.60
2023-04-23T13:07:12.319Z,0.55
2023-04-23T13:09:42.257Z,0.57
2023-04-23T13:12:11.537Z,0.60
2023-04-23T13:14:40.468Z,0.57
2023-04-23T13:17:09.674Z,0.60
2023-04-23T13:19:41.601Z,0.50
2023-04-23T13:22:11.084Z,0.47
2023-04-23T13:24:40.169Z,0.43
2023-04-23T13:27:12.093Z,0.63
2023-04-23T13:29:42.999Z,0.50
2023-04-23T13:32:17.171Z,0.60
2023-04-23T13:34:49.232Z,0.60
2023-04-23T13:37:20.753Z,0.80
2023-04-23T13:39:49.780Z,0.63
2023-04-23T13:42:20.379Z,0.50
2023-04-23T13:44:52.722Z,0.50
2023-04-23T13:47:21.863Z,0.60
2023-04-23T13:49:51.172Z,0.40
2023-04-23T13:52:20.116Z,0.30
2023-04-23T13:54:49.946Z,0.30
2023-04-23T13:57:18.937Z,0.50
2023-04-23T13:59:48.021Z,0.40
2023-04-23T14:02:17.953Z,0.30
2023-04-23T14:04:47.395Z,0.40
2023-04-23T14:07:19.298Z,0.40
2023-04-23T14:09:48.469Z,0.40
2023-04-23T14:12:17.510Z,0.50
2023-04-23T14:14:46.648Z,0.30
2023-04-23T14:17:16.244Z,0.40
2023-04-23T14:19:45.179Z,0.40
2023-04-23T14:22:14.380Z,0.63
2023-04-23T14:24:51.732Z,0.30
2023-04-23T14:27:35.112Z,0.40
2023-04-23T14:30:10.190Z,0.30
2023-04-23T14:32:40.775Z,0.30
2023-04-23T14:35:10.170Z,0.30
2023-04-23T14:37:39.428Z,0.30
2023-04-23T14:40:09.224Z,0.30
2023-04-23T14:42:41.288Z,0.30
2023-04-23T14:45:10.691Z,0.30
2023-04-23T14:47:41.563Z,0.30
2023-04-23T14:50:11.284Z,0.30
2023-04-23T14:52:40.662Z,0.30
2023-04-23T14:55:10.020Z,0.30
2023-04-23T14:57:39.264Z,0.30
2023-04-23T15:00:09.111Z,0.40
2023-04-23T15:02:39.253Z,0.20
2023-04-23T15:05:11.581Z,0.50
2023-04-23T15:07:42.065Z,0.35
2023-04-23T15:10:12.442Z,0.32
2023-04-23T15:12:41.469Z,0.30
2023-04-23T15:15:44.437Z,0.30
2023-04-23T15:18:18.106Z,0.30
2023-04-23T15:20:47.548Z,0.40
2023-04-23T15:23:16.551Z,0.30
2023-04-23T15:25:45.681Z,0.30
2023-04-23T15:28:14.657Z,0.30
2023-04-23T15:30:45.684Z,0.30
2023-04-23T15:33:14.700Z,0.30
2023-04-23T15:35:43.662Z,0.40
2023-04-23T15:38:12.585Z,0.30
2023-04-23T15:40:43.433Z,0.40
2023-04-23T15:43:15.705Z,0.30
2023-04-23T15:45:48.719Z,0.30
2023-04-23T15:48:18.270Z,0.30
2023-04-23T15:50:47.401Z,0.30
2023-04-23T15:53:16.580Z,0.30
2023-04-23T15:55:45.633Z,0.40
2023-04-23T15:58:14.699Z,0.30
2023-04-23T16:00:43.698Z,0.30
2023-04-23T16:03:15.703Z,0.30
2023-04-23T16:05:50.963Z,0.40
2023-04-23T16:08:20.595Z,0.30
2023-04-23T16:10:49.612Z,0.40
2023-04-23T16:13:20.982Z,0.30
2023-04-23T16:15:49.994Z,0.30
2023-04-23T16:18:19.184Z,0.40
2023-04-23T16:20:48.296Z,0.30
2023-04-23T16:23:17.267Z,0.30
2023-04-23T16:25:46.451Z,0.30
2023-04-23T16:28:15.443Z,0.40
2023-04-23T16:30:57.385Z,0.40
2023-04-23T16:33:28.204Z,0.30
2023-04-23T16:36:02.419Z,0.40
2023-04-23T16:38:33.584Z,0.40
2023-04-23T16:41:05.068Z,0.40
2023-04-23T16:43:34.140Z,0.40
2023-04-23T16:46:03.092Z,0.40
2023-04-23T16:48:32.200Z,0.40
2023-04-23T16:51:01.155Z,0.40
2023-04-23T16:53:30.314Z,0.55
2023-04-23T16:55:59.634Z,0.50
2023-04-23T16:58:29.700Z,0.68
2023-04-23T17:00:58.763Z,0.88
2023-04-23T17:03:27.977Z,0.80
2023-04-23T17:06:12.277Z,1.10
2023-04-23T17:08:41.304Z,0.90
2023-04-23T17:11:10.299Z,1.27
2023-04-23T17:13:40.236Z,1.50
2023-04-23T17:16:09.408Z,2.05
2023-04-23T17:18:38.513Z,1.30
2023-04-23T17:21:07.863Z,1.88
2023-04-23T17:23:36.878Z,1.85
2023-04-23T17:26:06.043Z,2.78
2023-04-23T17:28:35.084Z,3.20
2023-04-23T17:31:04.565Z,3.60
2023-04-23T17:33:33.684Z,2.50
2023-04-23T17:36:02.808Z,2.92
2023-04-23T17:38:32.146Z,2.40
2023-04-23T17:41:01.298Z,3.28
2023-04-23T17:43:32.777Z,2.75
2023-04-23T17:46:04.476Z,3.17
2023-04-23T17:48:33.807Z,2.25
2023-04-23T17:51:03.026Z,2.63
2023-04-23T17:53:32.315Z,3.15
2023-04-23T17:56:03.903Z,3.05
2023-04-23T17:58:32.979Z,2.90
2023-04-23T18:01:03.881Z,3.33
2023-04-23T18:03:33.541Z,3.80
2023-04-23T18:06:03.349Z,2.72
2023-04-23T18:08:32.359Z,2.97
2023-04-23T18:11:01.639Z,3.75
2023-04-23T18:13:31.752Z,2.97
2023-04-23T18:16:01.754Z,3.08
2023-04-23T18:18:30.899Z,4.32
2023-04-23T18:21:00.269Z,3.67
2023-04-23T18:23:29.994Z,2.80
2023-04-23T18:26:02.236Z,3.20
2023-04-23T18:28:35.710Z,2.67
2023-04-23T18:31:05.615Z,3.20
2023-04-23T18:33:42.338Z,2.90
2023-04-23T18:38:51.705Z,2.75
2023-04-23T18:41:20.827Z,2.80
2023-04-23T18:43:49.837Z,2.40
2023-04-23T18:46:18.922Z,3.05
2023-04-23T18:48:52.797Z,3.72
2023-04-23T18:51:32.447Z,2.35
2023-04-23T18:54:02.788Z,2.45
2023-04-23T18:56:32.505Z,2.20
2023-04-23T18:59:01.585Z,2.97
2023-04-23T19:01:30.754Z,3.00
2023-04-23T19:04:03.740Z,2.50
2023-04-23T19:06:33.471Z,2.55
2023-04-23T19:09:02.407Z,2.40
2023-04-23T19:11:35.749Z,2.83
2023-04-23T19:14:05.414Z,2.75
2023-04-23T19:16:35.059Z,2.40
2023-04-23T19:19:04.342Z,2.25
2023-04-23T19:21:33.333Z,3.42
2023-04-23T19:24:02.385Z,2.67
2023-04-23T19:26:31.491Z,2.40
2023-04-23T19:29:00.839Z,2.42
2023-04-23T19:31:31.550Z,2.38
2023-04-23T19:34:00.643Z,2.33
2023-04-23T19:36:30.267Z,2.53
2023-04-23T19:38:59.251Z,3.17
2023-04-23T19:41:30.932Z,2.67
2023-04-23T19:43:59.877Z,3.22
2023-04-23T19:46:29.020Z,3.67
2023-04-23T19:48:58.166Z,3.25
2023-04-23T19:51:30.240Z,3.20
2023-04-23T19:53:59.773Z,3.88
2023-04-23T19:56:28.948Z,2.67
2023-04-23T19:58:58.174Z,3.90
2023-04-23T20:01:28.971Z,3.00
2023-04-23T20:03:58.238Z,3.40
2023-04-23T20:06:27.417Z,2.90
2023-04-23T20:09:09.377Z,3.10
2023-04-23T20:11:38.354Z,3.60
2023-04-23T20:14:07.742Z,4.20
2023-04-23T20:16:37.280Z,4.18
2023-04-23T20:19:10.399Z,3.45
2023-04-23T20:21:40.971Z,3.60
2023-04-23T20:24:11.818Z,2.80
2023-04-23T20:26:42.891Z,2.85
2023-04-23T20:29:12.205Z,4.00
2023-04-23T20:31:41.456Z,2.55
2023-04-23T20:34:11.860Z,3.83
2023-04-23T20:36:40.964Z,3.50
2023-04-23T20:39:10.342Z,3.70
2023-04-23T20:41:39.418Z,2.63
2023-04-23T20:44:08.498Z,3.83
2023-04-23T20:46:37.736Z,3.38
2023-04-23T20:49:06.742Z,3.17
2023-04-23T20:51:35.861Z,3.80
2023-04-23T20:54:05.597Z,3.33
2023-04-23T20:56:34.733Z,3.28
2023-04-23T20:59:05.025Z,3.63
2023-04-23T21:01:34.313Z,2.97
2023-04-23T21:04:03.669Z,3.20
2023-04-23T21:06:34.180Z,2.63
2023-04-23T21:09:03.331Z,2.88
2023-04-23T21:11:33.303Z,3.47
2023-04-23T21:14:02.606Z,3.22
2023-04-23T21:16:32.055Z,3.08
2023-04-23T21:19:01.310Z,3.05
2023-04-23T21:21:32.950Z,2.58
2023-04-23T21:24:02.047Z,3.28
2023-04-23T21:26:32.385Z,3.17
2023-04-23T21:29:01.508Z,2.95
2023-04-23T21:31:36.687Z,3.03
2023-04-23T21:34:05.804Z,3.25
2023-04-23T21:36:34.798Z,2.58
2023-04-23T21:39:04.251Z,2.95
2023-04-23T21:41:33.829Z,2.97
2023-04-23T21:44:03.024Z,3.17
2023-04-23T21:46:32.906Z,3.50
2023-04-23T21:49:03.082Z,3.30
2023-04-23T21:51:37.143Z,2.97
2023-04-23T21:54:07.050Z,2.72
2023-04-23T21:56:36.747Z,3.17
2023-04-23T21:59:05.622Z,2.85
2023-04-23T22:01:36.662Z,2.80
2023-04-23T22:04:06.162Z,2.70
2023-04-23T22:06:36.059Z,2.90
2023-04-23T22:09:06.703Z,2.10
2023-04-23T22:11:35.821Z,2.75
2023-04-23T22:14:04.846Z,2.17
2023-04-23T22:16:35.032Z,3.42
2023-04-23T22:19:05.332Z,2.80
2023-04-23T22:21:34.351Z,2.30
2023-04-23T22:24:04.485Z,2.78
2023-04-23T22:26:34.807Z,3.38
2023-04-23T22:29:04.100Z,3.35
2023-04-23T22:31:33.179Z,2.17
2023-04-23T22:34:02.563Z,2.65
2023-04-23T22:36:32.750Z,3.28
2023-04-23T22:39:02.732Z,3.13
2023-04-23T22:41:33.598Z,2.90
2023-04-23T22:44:02.975Z,2.38
2023-04-23T22:46:32.599Z,2.40
2023-04-23T22:49:02.050Z,3.45
2023-04-23T22:51:34.168Z,2.33
2023-04-23T22:54:03.308Z,3.08
2023-04-23T22:56:32.273Z,2.67
2023-04-23T22:59:01.310Z,3.42
2023-04-23T23:01:30.198Z,3.10
2023-04-23T23:03:59.280Z,3.30
2023-04-23T23:06:28.801Z,3.50
2023-04-23T23:08:57.769Z,5.80
2023-04-23T23:11:29.995Z,3.15
2023-04-23T23:13:59.392Z,3.72
2023-04-23T23:16:28.653Z,3.13
2023-04-23T23:18:58.876Z,3.00
2023-04-23T23:21:28.031Z,2.92
2023-04-23T23:23:57.195Z,3.55
2023-04-23T23:26:27.045Z,3.83
2023-04-23T23:28:58.871Z,2.90
2023-04-23T23:31:28.582Z,3.30
2023-04-23T23:33:57.776Z,3.05
2023-04-23T23:36:26.936Z,3.20
2023-04-23T23:38:56.131Z,3.17
2023-04-23T23:41:25.132Z,4.00
2023-04-23T23:43:54.776Z,3.85
2023-04-23T23:46:23.798Z,2.95
2023-04-23T23:48:53.079Z,4.68
2023-04-23T23:51:22.148Z,3.33
2023-04-23T23:53:51.118Z,3.17
2023-04-23T23:56:20.833Z,3.97
2023-04-23T23:58:49.816Z,2.45
